Platzwetter Flugplatz Wels

Flugwetter Linz LOWL

[Quelle: ADDS]
METAR
LOWL 151850Z AUTO VRB01KT 9999 NSC 04/01 Q1033 NOSIG =
LOWL 151715Z 1518/1618 VRB02KT CAVOK TX13/1614Z TNM01/1604Z PROB40 TEMPO 1602/1609 0800 FZBCFG NSC
TAF
LOWL 151715Z 1518/1618 VRB02KT CAVOK TX13/1614Z TNM01/1604Z PROB40 TEMPO 1602/1609 0800 FZBCFG NSC =

Flugwetter Salzburg LOWS

[Quelle: ADDS]
METAR
LOWS 151850Z 17005KT CAVOK 04/M02 Q1032 NOSIG =
LOWS 151715Z 1518/1618 15006KT CAVOK TX12/1614Z TNM02/1605Z TEMPO 1610/1617 VRB02KT
TAF
LOWS 151715Z 1518/1618 15006KT CAVOK TX12/1614Z TNM02/1605Z TEMPO 1610/1617 VRB02KT =

Wind - Verlauf

Windrichtung - Verlauf

Temperatur - Verlauf

Relative Luftfeuchtigkeit - Verlauf

Luftdruck - Verlauf


JU 52 Nostalgie-Rundflüge - hier am Flugplatz Wels!

Tickets, Termine und Infos, hier am Flugplatz Wels. Tickethotline +43 7242 26499 0

Pilot für einen Tag - Erfülle Dir den Traum vom Fliegen!

Werde einen Tag lang Pilot bei und mit dem Fliegerclub Weiße Möwe in Wels!

Stadt - Wels

Ausflugsziele & Sehenswürdigkeiten
in Wels und Umgebung

Cookies erleichtern die Bereitstellung unserer Dienste. Mit der Nutzung unserer Dienste erklären Sie sich damit einverstanden, dass wir Cookies verwenden.
Weitere Informationen Ok